createdAt,value
2019-05-11T00:00:38.029Z,5.70
2019-05-11T00:03:03.825Z,5.20
2019-05-11T00:05:29.613Z,5.53
2019-05-11T00:07:55.408Z,5.40
2019-05-11T00:10:23.529Z,5.70
2019-05-11T00:12:49.317Z,5.83
2019-05-11T00:15:15.125Z,5.63
2019-05-11T00:17:40.902Z,5.63
2019-05-11T00:20:06.800Z,6.50
2019-05-11T00:22:32.584Z,6.40
2019-05-11T00:24:58.360Z,6.40
2019-05-11T00:27:27.639Z,6.17
2019-05-11T00:29:53.472Z,6.10
2019-05-11T00:32:22.731Z,5.70
2019-05-11T00:34:47.237Z,6.23
2019-05-11T00:37:13.031Z,6.30
2019-05-11T00:39:38.816Z,5.90
2019-05-11T00:42:04.632Z,6.40
2019-05-11T00:44:30.396Z,6.87
2019-05-11T00:46:56.190Z,6.60
2019-05-11T00:49:21.975Z,6.27
2019-05-11T00:51:47.854Z,6.93
2019-05-11T00:54:13.665Z,6.83
2019-05-11T00:56:39.462Z,7.30
2019-05-11T00:59:05.242Z,6.97
2019-05-11T01:01:31.163Z,6.70
2019-05-11T01:03:57.268Z,7.43
2019-05-11T01:06:23.672Z,7.10
2019-05-11T01:08:49.572Z,6.97
2019-05-11T01:11:15.518Z,6.37
2019-05-11T01:13:41.545Z,6.67
2019-05-11T01:16:07.488Z,6.30
2019-05-11T01:18:33.625Z,6.43
2019-05-11T01:20:59.489Z,6.65
2019-05-11T01:23:25.542Z,6.93
2019-05-11T01:25:51.565Z,5.90
2019-05-11T01:28:17.417Z,6.47
2019-05-11T01:30:43.213Z,5.73
2019-05-11T01:33:09.132Z,6.27
2019-05-11T01:35:34.951Z,5.40
2019-05-11T01:38:00.770Z,6.13
2019-05-11T01:40:26.559Z,5.60
2019-05-11T01:42:52.342Z,6.10
2019-05-11T01:45:18.171Z,5.50
2019-05-11T01:47:43.958Z,6.10
2019-05-11T01:50:09.874Z,5.77
2019-05-11T01:52:35.659Z,5.80
2019-05-11T01:55:01.562Z,5.70
2019-05-11T01:57:27.345Z,5.77
2019-05-11T01:59:53.151Z,6.00
2019-05-11T02:02:18.953Z,6.40
2019-05-11T02:04:44.756Z,6.17
2019-05-11T02:07:10.533Z,6.00
2019-05-11T02:09:36.357Z,5.97
2019-05-11T02:12:02.247Z,6.03
2019-05-11T02:14:28.045Z,6.30
2019-05-11T02:16:53.849Z,7.73
2019-05-11T02:19:19.683Z,8.20
2019-05-11T02:21:45.475Z,8.53
2019-05-11T02:24:11.260Z,9.60
2019-05-11T02:26:37.060Z,8.67
2019-05-11T02:29:02.941Z,8.70
2019-05-11T02:31:28.736Z,8.93
2019-05-11T02:33:54.540Z,8.13
2019-05-11T02:36:20.339Z,7.93
2019-05-11T02:38:46.128Z,7.10
2019-05-11T02:41:11.928Z,7.30
2019-05-11T02:43:38.209Z,6.60
2019-05-11T02:46:04.014Z,6.87
2019-05-11T02:48:29.821Z,6.57
2019-05-11T02:50:56.719Z,6.70
2019-05-11T02:53:22.711Z,6.65
2019-05-11T02:55:49.110Z,6.83
2019-05-11T02:58:14.928Z,7.05
2019-05-11T03:00:42.729Z,6.80
2019-05-11T03:03:08.561Z,6.85
2019-05-11T03:05:34.367Z,7.23
2019-05-11T03:08:00.158Z,6.87
2019-05-11T03:10:25.946Z,6.60
2019-05-11T03:12:51.741Z,6.80
2019-05-11T03:15:17.523Z,6.50
2019-05-11T03:17:43.329Z,6.30
2019-05-11T03:20:09.215Z,6.70
2019-05-11T03:22:35.018Z,6.73
2019-05-11T03:25:00.801Z,6.50
2019-05-11T03:27:26.622Z,6.67
2019-05-11T03:29:52.405Z,7.53
2019-05-11T03:32:18.240Z,7.03
2019-05-11T03:34:44.011Z,6.60
2019-05-11T03:37:09.804Z,6.57
2019-05-11T03:39:35.599Z,7.00
2019-05-11T03:42:14.135Z,7.13
2019-05-11T03:44:29.189Z,8.35
2019-05-11T03:46:55.004Z,8.03
2019-05-11T03:49:20.789Z,7.57
2019-05-11T03:51:46.583Z,8.53
2019-05-11T03:54:12.368Z,8.80
2019-05-11T03:56:38.202Z,7.67
2019-05-11T03:59:03.967Z,6.80
2019-05-11T04:01:29.780Z,8.00
2019-05-11T04:03:55.579Z,7.83
2019-05-11T04:06:21.366Z,8.53
2019-05-11T04:08:53.909Z,7.58
2019-05-11T04:11:19.696Z,8.10
2019-05-11T04:13:45.496Z,8.23
2019-05-11T04:16:11.273Z,8.03
2019-05-11T04:18:37.073Z,7.30
2019-05-11T04:21:02.859Z,7.30
2019-05-11T04:23:28.658Z,7.00
2019-05-11T04:25:54.442Z,6.90
2019-05-11T04:28:20.269Z,7.07
2019-05-11T04:30:46.048Z,6.70
2019-05-11T04:33:11.938Z,6.93
2019-05-11T04:35:37.739Z,7.67
2019-05-11T04:38:03.560Z,8.03
2019-05-11T04:40:30.148Z,7.43
2019-05-11T04:42:56.442Z,7.47
2019-05-11T04:45:22.382Z,7.87
2019-05-11T04:47:48.248Z,7.47
2019-05-11T04:50:14.290Z,7.40
2019-05-11T04:52:40.179Z,8.87
2019-05-11T04:55:05.983Z,9.63
2019-05-11T04:57:31.762Z,9.30
2019-05-11T04:59:57.563Z,9.73
2019-05-11T05:02:23.367Z,9.00
2019-05-11T05:04:49.175Z,9.53
2019-05-11T05:07:16.653Z,10.03
2019-05-11T05:09:44.738Z,9.53
2019-05-11T05:12:14.184Z,10.73
2019-05-11T05:14:37.989Z,10.23
2019-05-11T05:17:03.794Z,10.30
2019-05-11T05:19:29.592Z,10.70
2019-05-11T05:21:55.383Z,9.57
2019-05-11T05:24:21.192Z,10.43
2019-05-11T05:26:47.000Z,11.30
2019-05-11T05:29:12.818Z,10.77
2019-05-11T05:31:38.604Z,10.20
2019-05-11T05:34:04.423Z,9.43
2019-05-11T05:36:30.204Z,8.80
2019-05-11T05:38:55.991Z,8.80
2019-05-11T05:41:21.806Z,8.63
2019-05-11T05:43:47.609Z,8.07
2019-05-11T05:46:13.429Z,7.90
2019-05-11T05:48:39.237Z,7.87
2019-05-11T05:51:05.154Z,7.33
2019-05-11T05:53:30.954Z,7.50
2019-05-11T05:55:56.744Z,6.23
2019-05-11T05:58:22.530Z,5.87
2019-05-11T06:00:48.384Z,5.47
2019-05-11T06:03:14.159Z,4.67
2019-05-11T06:05:40.078Z,5.00
2019-05-11T06:08:05.846Z,4.63
2019-05-11T06:10:31.674Z,3.70
2019-05-11T06:12:57.477Z,4.30
2019-05-11T06:15:23.280Z,3.90
2019-05-11T06:17:49.086Z,3.73
2019-05-11T06:20:14.993Z,3.80
2019-05-11T06:22:40.813Z,3.60
2019-05-11T06:25:06.705Z,2.83
2019-05-11T06:27:32.507Z,3.87
2019-05-11T06:29:58.296Z,3.93
2019-05-11T06:32:24.111Z,2.83
2019-05-11T06:34:49.893Z,3.10
2019-05-11T06:37:15.723Z,3.27
2019-05-11T06:39:41.513Z,3.20
2019-05-11T06:42:07.314Z,2.97
2019-05-11T06:44:33.103Z,2.60
2019-05-11T06:46:58.931Z,2.60
2019-05-11T06:49:24.725Z,2.50
2019-05-11T06:51:50.525Z,2.33
2019-05-11T06:54:16.449Z,2.30
2019-05-11T06:56:42.241Z,2.80
2019-05-11T06:59:08.026Z,2.80
2019-05-11T07:01:33.831Z,2.60
2019-05-11T07:03:59.620Z,2.40
2019-05-11T07:06:28.343Z,2.57
2019-05-11T07:08:53.150Z,2.23
2019-05-11T07:11:18.933Z,1.90
2019-05-11T07:13:44.739Z,2.33
2019-05-11T07:16:10.522Z,2.17
2019-05-11T07:18:36.322Z,2.33
2019-05-11T07:21:02.106Z,2.70
2019-05-11T07:23:27.909Z,2.73
2019-05-11T07:25:53.695Z,2.23
2019-05-11T07:28:19.502Z,2.60
2019-05-11T07:30:45.303Z,2.27
2019-05-11T07:33:11.094Z,2.57
2019-05-11T07:35:38.519Z,2.33
2019-05-11T07:38:04.393Z,2.30
2019-05-11T07:40:30.175Z,2.03
2019-05-11T07:42:55.979Z,2.17
2019-05-11T07:45:21.770Z,2.50
2019-05-11T07:47:48.561Z,2.70
2019-05-11T07:50:14.971Z,2.43
2019-05-11T07:52:40.758Z,2.13
2019-05-11T07:55:08.481Z,2.20
2019-05-11T07:57:34.645Z,2.60
2019-05-11T08:00:00.441Z,2.20
2019-05-11T08:02:28.551Z,2.50
2019-05-11T08:04:53.951Z,2.30
2019-05-11T08:07:19.741Z,2.57
2019-05-11T08:09:45.541Z,2.50
2019-05-11T08:12:11.335Z,2.50
2019-05-11T08:14:55.962Z,2.40
2019-05-11T08:17:04.829Z,2.60
2019-05-11T08:19:30.634Z,2.80
2019-05-11T08:21:58.235Z,2.30
2019-05-11T08:24:24.138Z,2.70
2019-05-11T08:26:49.937Z,2.60
2019-05-11T08:29:15.741Z,2.53
2019-05-11T08:31:41.529Z,2.40
2019-05-11T08:34:08.871Z,2.47
2019-05-11T08:36:34.928Z,2.37
2019-05-11T08:39:00.759Z,2.13
2019-05-11T08:41:27.936Z,2.30
2019-05-11T08:43:54.057Z,2.37
2019-05-11T08:46:19.854Z,2.50
2019-05-11T08:48:47.735Z,2.50
2019-05-11T08:51:13.363Z,2.33
2019-05-11T08:53:39.138Z,2.50
2019-05-11T08:56:04.934Z,2.50
2019-05-11T08:58:30.745Z,2.60
2019-05-11T09:00:58.317Z,2.63
2019-05-11T09:03:24.249Z,2.53
2019-05-11T09:05:50.068Z,2.50
2019-05-11T09:08:15.878Z,2.43
2019-05-11T09:10:41.693Z,2.47
2019-05-11T09:13:08.089Z,2.40
2019-05-11T09:15:39.795Z,2.23
2019-05-11T09:18:01.702Z,2.30
2019-05-11T09:20:28.554Z,2.20
2019-05-11T09:22:54.496Z,2.70
2019-05-11T09:25:20.307Z,2.63
2019-05-11T09:27:48.217Z,2.40
2019-05-11T09:30:14.110Z,2.10
2019-05-11T09:32:39.957Z,2.43
2019-05-11T09:35:08.110Z,2.63
2019-05-11T09:37:33.645Z,2.33
2019-05-11T09:39:59.437Z,2.10
2019-05-11T09:42:25.244Z,2.20
2019-05-11T09:44:51.026Z,2.10
2019-05-11T09:47:18.976Z,2.30
2019-05-11T09:49:48.040Z,2.13
2019-05-11T09:52:12.320Z,2.23
2019-05-11T09:54:38.486Z,2.30
2019-05-11T09:57:04.347Z,2.60
2019-05-11T09:59:30.134Z,2.10
2019-05-11T10:01:56.134Z,2.27
2019-05-11T10:04:21.949Z,2.40
2019-05-11T10:06:48.220Z,2.10
2019-05-11T10:09:14.037Z,2.47
2019-05-11T10:11:40.084Z,2.40
2019-05-11T10:14:08.211Z,2.40
2019-05-11T10:16:33.708Z,2.17
2019-05-11T10:18:59.513Z,1.90
2019-05-11T10:21:25.298Z,2.83
2019-05-11T10:23:51.201Z,2.00
2019-05-11T10:26:18.689Z,2.50
2019-05-11T10:28:44.917Z,2.67
2019-05-11T10:31:11.082Z,2.30
2019-05-11T10:33:38.222Z,2.30
2019-05-11T10:36:04.869Z,2.80
2019-05-11T10:38:30.659Z,2.20
2019-05-11T10:40:58.161Z,2.40
2019-05-11T10:43:24.160Z,2.60
2019-05-11T10:45:49.954Z,2.17
2019-05-11T10:48:17.741Z,1.97
2019-05-11T10:50:43.713Z,2.30
2019-05-11T10:53:09.514Z,2.03
2019-05-11T10:55:38.650Z,2.30
2019-05-11T10:58:04.194Z,2.27
2019-05-11T11:00:30.494Z,2.23
2019-05-11T11:02:58.133Z,2.20
2019-05-11T11:05:24.220Z,2.63
2019-05-11T11:07:50.781Z,2.13
2019-05-11T11:10:18.161Z,2.10
2019-05-11T11:12:44.141Z,2.33
2019-05-11T11:15:10.276Z,2.23
2019-05-11T11:17:38.274Z,2.10
2019-05-11T11:20:08.595Z,2.00
2019-05-11T11:22:40.375Z,2.47
2019-05-11T11:25:03.966Z,1.90
2019-05-11T11:27:29.850Z,2.80
2019-05-11T11:29:55.643Z,2.10
2019-05-11T11:32:21.445Z,2.10
2019-05-11T11:34:48.476Z,2.20
2019-05-11T11:37:14.817Z,2.13
2019-05-11T11:39:40.641Z,1.90
2019-05-11T11:42:08.417Z,2.83
2019-05-11T11:44:34.848Z,2.50
2019-05-11T11:47:01.131Z,2.40
2019-05-11T11:49:28.289Z,1.90
2019-05-11T11:51:57.822Z,2.30
2019-05-11T11:54:23.501Z,2.20
2019-05-11T11:56:49.310Z,2.30
2019-05-11T11:59:15.111Z,2.23
2019-05-11T12:01:40.928Z,2.30
2019-05-11T12:04:08.241Z,2.23
2019-05-11T12:06:34.266Z,1.87
2019-05-11T12:09:00.056Z,2.00
2019-05-11T12:11:27.832Z,2.27
2019-05-11T12:13:53.567Z,1.90
2019-05-11T12:16:19.385Z,2.07
2019-05-11T12:18:45.187Z,2.00
2019-05-11T12:21:11.011Z,1.60
2019-05-11T12:23:38.122Z,2.00
2019-05-11T12:26:04.207Z,1.90
2019-05-11T12:28:30.000Z,1.73
2019-05-11T12:30:58.421Z,1.97
2019-05-11T12:33:23.496Z,1.80
2019-05-11T12:35:49.301Z,2.10
2019-05-11T12:38:15.153Z,2.00
2019-05-11T12:40:40.958Z,1.70
2019-05-11T12:43:08.131Z,2.00
2019-05-11T12:45:34.281Z,1.70
2019-05-11T12:48:00.833Z,2.10
2019-05-11T12:50:28.801Z,1.90
2019-05-11T12:52:58.185Z,1.80
2019-05-11T12:55:22.444Z,2.40
2019-05-11T12:57:48.294Z,1.90
2019-05-11T13:00:14.439Z,1.97
2019-05-11T13:02:40.280Z,1.70
2019-05-11T13:05:08.708Z,1.83
2019-05-11T13:07:38.949Z,2.10
2019-05-11T13:10:05.627Z,2.20
2019-05-11T13:12:32.664Z,2.23
2019-05-11T13:14:59.156Z,2.00
2019-05-11T13:17:36.583Z,1.87
2019-05-11T13:19:53.955Z,1.90
2019-05-11T13:22:20.627Z,2.30
2019-05-11T13:24:48.146Z,2.10
2019-05-11T13:27:14.124Z,2.10
2019-05-11T13:29:39.951Z,2.07
2019-05-11T13:32:07.786Z,1.70
2019-05-11T13:34:33.485Z,2.17
2019-05-11T13:36:59.292Z,2.13
2019-05-11T13:39:25.077Z,2.30
2019-05-11T13:41:50.879Z,2.30
2019-05-11T13:44:18.675Z,1.83
2019-05-11T13:46:44.401Z,2.20
2019-05-11T13:49:10.199Z,1.90
2019-05-11T13:51:35.995Z,2.20
2019-05-11T13:54:01.793Z,2.47
2019-05-11T13:56:28.517Z,2.10
2019-05-11T13:58:57.909Z,2.07
2019-05-11T14:01:23.800Z,2.50
2019-05-11T14:03:49.639Z,2.00
2019-05-11T14:06:15.428Z,2.03
2019-05-11T14:08:41.239Z,1.97
2019-05-11T14:11:08.591Z,1.83
2019-05-11T14:13:34.520Z,2.00
2019-05-11T14:16:00.325Z,2.30
2019-05-11T14:18:28.170Z,1.83
2019-05-11T14:20:53.846Z,2.30
2019-05-11T14:23:19.642Z,1.80
2019-05-11T14:25:45.448Z,1.90
2019-05-11T14:28:11.249Z,2.10
2019-05-11T14:30:38.542Z,2.17
2019-05-11T14:33:04.642Z,2.20
2019-05-11T14:35:30.562Z,2.10
2019-05-11T14:37:58.577Z,1.90
2019-05-11T14:40:24.063Z,2.60
2019-05-11T14:42:49.852Z,2.00
2019-05-11T14:45:15.652Z,1.90
2019-05-11T14:47:42.789Z,1.90
2019-05-11T14:50:08.952Z,2.30
2019-05-11T14:52:34.732Z,2.07
2019-05-11T14:55:00.551Z,2.20
2019-05-11T14:57:27.845Z,1.63
2019-05-11T14:59:53.862Z,2.17
2019-05-11T15:02:37.918Z,1.93
2019-05-11T15:05:04.007Z,2.20
2019-05-11T15:07:30.084Z,2.27
2019-05-11T15:09:55.887Z,2.07
2019-05-11T15:12:22.478Z,2.30
2019-05-11T15:14:48.641Z,2.10
2019-05-11T15:17:14.610Z,2.23
2019-05-11T15:19:40.544Z,2.10
2019-05-11T15:22:08.555Z,2.13
2019-05-11T15:24:34.045Z,2.20
2019-05-11T15:26:59.949Z,2.00
2019-05-11T15:29:25.748Z,2.10
2019-05-11T15:31:51.538Z,2.43
2019-05-11T15:34:18.589Z,1.90
2019-05-11T15:36:44.639Z,2.20
2019-05-11T15:39:10.437Z,2.23
2019-05-11T15:41:38.591Z,2.00
2019-05-11T15:44:03.953Z,2.20
2019-05-11T15:46:29.738Z,1.90
2019-05-11T15:49:02.739Z,1.83
2019-05-11T15:51:23.259Z,2.20
2019-05-11T15:53:50.289Z,1.97
2019-05-11T15:56:18.772Z,2.17
2019-05-11T15:58:43.958Z,1.73
2019-05-11T16:01:09.753Z,2.20
2019-05-11T16:03:35.554Z,1.90
2019-05-11T16:06:01.359Z,2.00
2019-05-11T16:08:28.370Z,2.00
2019-05-11T16:10:54.377Z,2.27
2019-05-11T16:13:20.164Z,2.10
2019-05-11T16:15:47.701Z,2.23
2019-05-11T16:18:13.664Z,2.40
2019-05-11T16:20:39.533Z,1.83
2019-05-11T16:23:05.338Z,2.23
2019-05-11T16:25:31.162Z,2.03
2019-05-11T16:27:56.952Z,2.10
2019-05-11T16:30:22.783Z,2.10
2019-05-11T16:32:48.585Z,2.47
2019-05-11T16:35:14.491Z,2.00
2019-05-11T16:37:40.345Z,3.50
2019-05-11T16:40:06.628Z,2.20
2019-05-11T16:42:32.440Z,2.30
2019-05-11T16:44:58.236Z,2.10
2019-05-11T16:47:24.046Z,2.13
2019-05-11T16:49:49.844Z,2.23
2019-05-11T16:52:15.656Z,2.23
2019-05-11T16:54:41.457Z,1.77
2019-05-11T16:57:08.607Z,2.20
2019-05-11T16:59:34.551Z,2.10
2019-05-11T17:02:00.399Z,2.27
2019-05-11T17:04:28.822Z,2.00
2019-05-11T17:06:54.099Z,2.17
2019-05-11T17:09:20.002Z,1.80
2019-05-11T17:11:45.802Z,2.00
2019-05-11T17:14:11.596Z,2.27
2019-05-11T17:16:38.641Z,2.10
2019-05-11T17:19:07.348Z,2.10
2019-05-11T17:21:32.866Z,2.30
2019-05-11T17:23:58.665Z,1.90
2019-05-11T17:26:24.508Z,2.03
2019-05-11T17:28:51.530Z,2.30
2019-05-11T17:31:19.007Z,2.63
2019-05-11T17:33:48.515Z,2.30
2019-05-11T17:36:14.538Z,2.47
2019-05-11T17:38:40.380Z,2.10
2019-05-11T17:41:08.331Z,2.17
2019-05-11T17:43:33.860Z,2.03
2019-05-11T17:45:59.659Z,2.10
2019-05-11T17:48:25.453Z,1.90
2019-05-11T17:50:51.258Z,2.60
2019-05-11T17:53:18.281Z,3.30
2019-05-11T17:55:44.145Z,2.60
2019-05-11T17:58:09.961Z,2.40
2019-05-11T18:00:35.764Z,2.17
2019-05-11T18:03:01.585Z,2.10
2019-05-11T18:05:27.365Z,2.43
2019-05-11T18:07:53.920Z,2.50
2019-05-11T18:10:20.104Z,2.63
2019-05-11T18:12:48.284Z,2.47
2019-05-11T18:15:14.193Z,2.10
2019-05-11T18:17:40.710Z,2.40
2019-05-11T18:20:17.368Z,2.80
2019-05-11T18:22:39.088Z,2.20
2019-05-11T18:25:08.100Z,2.20
2019-05-11T18:27:33.834Z,2.20
2019-05-11T18:29:59.670Z,2.40
2019-05-11T18:32:25.485Z,2.47
2019-05-11T18:34:51.307Z,2.27
2019-05-11T18:37:18.682Z,3.30
2019-05-11T18:39:44.621Z,2.60
2019-05-11T18:42:10.557Z,2.20
2019-05-11T18:44:37.990Z,2.50
2019-05-11T18:47:03.885Z,1.93
2019-05-11T18:49:29.680Z,2.10
2019-05-11T18:51:55.486Z,1.80
2019-05-11T18:54:21.325Z,1.97
2019-05-11T18:56:48.874Z,2.20
2019-05-11T18:59:14.846Z,2.03
2019-05-11T19:01:40.674Z,1.73
2019-05-11T19:04:07.832Z,2.17
2019-05-11T19:06:33.893Z,2.23
2019-05-11T19:08:59.688Z,2.57
2019-05-11T19:11:25.556Z,2.27
2019-05-11T19:13:51.405Z,2.33
2019-05-11T19:16:18.632Z,2.50
2019-05-11T19:18:44.817Z,2.33
2019-05-11T19:21:10.706Z,2.37
2019-05-11T19:23:38.005Z,2.23
2019-05-11T19:26:04.020Z,1.90
2019-05-11T19:28:29.827Z,2.20
2019-05-11T19:30:55.639Z,2.30
2019-05-11T19:33:21.432Z,2.23
2019-05-11T19:35:48.063Z,2.47
2019-05-11T19:38:14.149Z,2.40
2019-05-11T19:40:39.942Z,2.30
2019-05-11T19:43:07.695Z,2.30
2019-05-11T19:45:33.442Z,2.10
2019-05-11T19:47:59.263Z,2.00
2019-05-11T19:50:25.051Z,2.67
2019-05-11T19:52:50.849Z,2.30
2019-05-11T19:55:17.891Z,2.43
2019-05-11T19:57:44.177Z,2.47
2019-05-11T20:00:10.062Z,2.33
2019-05-11T20:02:35.885Z,2.83
2019-05-11T20:05:01.711Z,2.47
2019-05-11T20:07:27.493Z,2.33
2019-05-11T20:09:53.290Z,2.30
2019-05-11T20:12:19.095Z,2.53
2019-05-11T20:14:44.879Z,2.63
2019-05-11T20:17:10.688Z,2.47
2019-05-11T20:19:38.425Z,2.33
2019-05-11T20:22:04.222Z,2.43
2019-05-11T20:24:30.010Z,2.40
2019-05-11T20:26:55.794Z,2.23
2019-05-11T20:29:21.588Z,2.60
2019-05-11T20:31:47.385Z,2.43
2019-05-11T20:34:13.186Z,2.57
2019-05-11T20:36:38.983Z,2.50
2019-05-11T20:39:05.883Z,2.27
2019-05-11T20:41:31.680Z,2.17
2019-05-11T20:43:58.030Z,2.90
2019-05-11T20:46:23.996Z,2.60
2019-05-11T20:48:49.817Z,2.80
2019-05-11T20:51:29.714Z,2.93
2019-05-11T20:53:46.192Z,3.33
2019-05-11T20:56:11.096Z,3.13
2019-05-11T20:58:55.180Z,3.87
2019-05-11T21:01:21.703Z,3.60
2019-05-11T21:03:48.654Z,3.63
2019-05-11T21:06:14.654Z,2.90
2019-05-11T21:08:40.506Z,2.40
2019-05-11T21:11:08.529Z,2.70
2019-05-11T21:13:33.994Z,2.60
2019-05-11T21:15:59.816Z,2.70
2019-05-11T21:18:25.600Z,2.63
2019-05-11T21:20:51.398Z,2.53
2019-05-11T21:23:18.587Z,2.70
2019-05-11T21:25:44.719Z,2.90
2019-05-11T21:28:10.505Z,2.90
2019-05-11T21:30:39.706Z,2.40
2019-05-11T21:33:04.015Z,2.40
2019-05-11T21:35:30.328Z,2.53
2019-05-11T21:37:57.967Z,2.30
2019-05-11T21:40:23.830Z,2.70
2019-05-11T21:42:49.608Z,2.87
2019-05-11T21:45:17.849Z,3.33
2019-05-11T21:47:43.526Z,2.50
2019-05-11T21:50:09.483Z,2.30
2019-05-11T21:52:35.324Z,2.50
2019-05-11T21:55:01.147Z,2.70
2019-05-11T21:57:27.888Z,2.63
2019-05-11T21:59:53.836Z,2.60
2019-05-11T22:02:19.754Z,3.03
2019-05-11T22:04:47.862Z,2.87
2019-05-11T22:07:13.275Z,3.20
2019-05-11T22:09:39.063Z,3.33
2019-05-11T22:12:04.878Z,3.17
2019-05-11T22:14:30.666Z,3.17
2019-05-11T22:16:59.239Z,3.20
2019-05-11T22:19:24.185Z,3.20
2019-05-11T22:21:50.004Z,2.57
2019-05-11T22:24:17.801Z,3.00
2019-05-11T22:26:43.500Z,3.13
2019-05-11T22:29:09.290Z,2.67
2019-05-11T22:31:35.104Z,2.73
2019-05-11T22:34:00.886Z,2.70
2019-05-11T22:36:28.233Z,2.60
2019-05-11T22:38:54.206Z,3.00
2019-05-11T22:41:20.043Z,3.20
2019-05-11T22:43:48.433Z,2.93
2019-05-11T22:46:13.518Z,3.33
2019-05-11T22:48:39.339Z,3.13
2019-05-11T22:51:05.132Z,3.00
2019-05-11T22:53:43.687Z,3.00
2019-05-11T22:55:58.631Z,3.03
2019-05-11T22:58:24.430Z,3.13
2019-05-11T23:00:50.217Z,2.77
2019-05-11T23:03:18.604Z,3.20
2019-05-11T23:05:43.741Z,3.33
2019-05-11T23:08:09.773Z,2.93
2019-05-11T23:10:35.587Z,2.77
2019-05-11T23:13:01.485Z,3.13
2019-05-11T23:15:27.282Z,3.10
2019-05-11T23:17:53.079Z,3.40
2019-05-11T23:20:18.877Z,3.40
2019-05-11T23:22:56.928Z,3.13
2019-05-11T23:25:18.228Z,3.27
2019-05-11T23:27:43.765Z,2.70
2019-05-11T23:30:09.765Z,3.37
2019-05-11T23:32:35.876Z,3.20
2019-05-11T23:35:02.105Z,3.70
2019-05-11T23:37:27.975Z,3.30
2019-05-11T23:39:53.797Z,3.57
2019-05-11T23:42:19.587Z,3.33
2019-05-11T23:44:45.929Z,3.67
2019-05-11T23:47:13.119Z,3.60
2019-05-11T23:49:38.939Z,2.90
2019-05-11T23:52:04.734Z,3.67
2019-05-11T23:54:30.544Z,3.17
2019-05-11T23:56:58.277Z,3.63
2019-05-11T23:59:24.034Z,3.50
